createdAt,value
2023-05-18T00:01:15.018Z,14.92
2023-05-18T00:04:24.531Z,14.85
2023-05-18T00:07:34.452Z,14.76
2023-05-18T00:10:40.105Z,14.79
2023-05-18T00:13:45.591Z,14.82
2023-05-18T00:16:54.223Z,14.74
2023-05-18T00:19:59.883Z,14.70
2023-05-18T00:23:06.730Z,14.69
2023-05-18T00:26:12.372Z,14.64
2023-05-18T00:29:17.907Z,14.72
2023-05-18T00:32:25.884Z,14.73
2023-05-18T00:35:32.276Z,14.63
2023-05-18T00:38:37.728Z,14.67
2023-05-18T00:41:43.397Z,14.61
2023-05-18T00:44:48.826Z,14.59
2023-05-18T00:47:54.477Z,14.56
2023-05-18T00:50:59.919Z,14.51
2023-05-18T00:54:06.591Z,14.47
2023-05-18T00:57:12.351Z,14.49
2023-05-18T01:00:18.192Z,14.51
2023-05-18T01:03:25.360Z,14.45
2023-05-18T01:06:36.673Z,14.52
2023-05-18T01:09:43.365Z,14.51
2023-05-18T01:12:55.254Z,14.55
2023-05-18T01:16:02.665Z,14.49
2023-05-18T01:19:36.388Z,14.45
2023-05-18T01:22:44.826Z,14.51
2023-05-18T01:25:56.280Z,14.47
2023-05-18T01:29:06.407Z,14.43
2023-05-18T01:32:20.478Z,14.26
2023-05-18T01:35:25.927Z,14.32
2023-05-18T01:38:32.094Z,14.09
2023-05-18T01:41:51.350Z,14.12
2023-05-18T01:45:07.958Z,14.14
2023-05-18T01:48:19.244Z,14.24
2023-05-18T01:51:31.724Z,14.27
2023-05-18T01:54:42.133Z,14.32
2023-05-18T01:57:50.211Z,14.14
2023-05-18T02:00:57.327Z,14.24
2023-05-18T02:04:03.569Z,14.19
2023-05-18T02:07:09.621Z,14.04
2023-05-18T02:10:15.779Z,14.03
2023-05-18T02:13:21.112Z,14.18
2023-05-18T02:16:26.345Z,14.05
2023-05-18T02:19:31.517Z,14.22
2023-05-18T02:22:37.416Z,14.01
2023-05-18T02:25:44.836Z,13.97
2023-05-18T02:28:52.137Z,14.00
2023-05-18T02:31:58.194Z,13.84
2023-05-18T02:35:07.039Z,13.95
2023-05-18T02:38:12.463Z,14.10
2023-05-18T02:41:18.409Z,14.10
2023-05-18T02:44:24.110Z,13.95
2023-05-18T02:47:29.731Z,14.01
2023-05-18T02:50:35.320Z,13.98
2023-05-18T02:53:40.873Z,14.07
2023-05-18T02:56:50.779Z,14.04
2023-05-18T03:00:12.239Z,14.01
2023-05-18T03:03:19.202Z,13.97
2023-05-18T03:06:27.177Z,13.98
2023-05-18T03:09:34.507Z,13.93
2023-05-18T03:12:42.339Z,13.77
2023-05-18T03:15:48.341Z,13.75
2023-05-18T03:18:54.668Z,13.78
2023-05-18T03:22:00.254Z,13.64
2023-05-18T03:25:06.386Z,13.70
2023-05-18T03:28:13.193Z,13.73
2023-05-18T03:31:18.949Z,13.66
2023-05-18T03:34:26.139Z,13.67
2023-05-18T03:37:32.280Z,13.65
2023-05-18T03:40:37.946Z,13.53
2023-05-18T03:43:44.027Z,13.55
2023-05-18T03:46:50.869Z,13.57
2023-05-18T03:49:56.576Z,13.71
2023-05-18T03:53:02.326Z,13.64
2023-05-18T03:56:08.949Z,13.64
2023-05-18T03:59:15.046Z,13.75
2023-05-18T04:02:21.740Z,13.83
2023-05-18T04:05:28.885Z,13.84
2023-05-18T04:08:34.780Z,13.87
2023-05-18T04:11:41.652Z,13.79
2023-05-18T04:14:51.179Z,13.94
2023-05-18T04:17:56.791Z,13.97
2023-05-18T04:21:03.591Z,13.99
2023-05-18T04:24:09.537Z,13.97
2023-05-18T04:27:15.639Z,14.04
2023-05-18T04:30:23.588Z,14.10
2023-05-18T04:33:30.832Z,14.14
2023-05-18T04:36:36.263Z,14.19
2023-05-18T04:39:42.426Z,14.30
2023-05-18T04:42:53.310Z,14.40
2023-05-18T04:46:07.699Z,14.46
2023-05-18T04:49:14.521Z,14.57
2023-05-18T04:52:21.434Z,14.64
2023-05-18T04:55:28.916Z,14.84
2023-05-18T04:58:38.278Z,14.88
2023-05-18T05:01:45.067Z,14.97
2023-05-18T05:04:50.765Z,15.19
2023-05-18T05:07:59.353Z,15.33
2023-05-18T05:11:05.096Z,15.48
2023-05-18T05:14:11.581Z,15.54
2023-05-18T05:17:18.099Z,15.60
2023-05-18T05:20:23.733Z,15.62
2023-05-18T05:23:29.759Z,15.62
2023-05-18T05:26:35.688Z,15.87
2023-05-18T05:29:41.316Z,15.80
2023-05-18T05:32:46.925Z,15.78
2023-05-18T05:35:52.317Z,16.11
2023-05-18T05:38:57.546Z,15.93
2023-05-18T05:42:02.505Z,16.03
2023-05-18T05:45:09.137Z,15.96
2023-05-18T05:48:21.877Z,16.00
2023-05-18T05:51:27.316Z,16.06
2023-05-18T05:54:33.178Z,16.03
2023-05-18T05:57:42.890Z,16.15
2023-05-18T06:00:49.034Z,16.11
2023-05-18T06:03:55.120Z,16.40
2023-05-18T06:07:02.003Z,16.19
2023-05-18T06:10:08.815Z,16.50
2023-05-18T06:13:14.801Z,16.54
2023-05-18T06:16:26.318Z,16.51
2023-05-18T06:19:32.064Z,16.65
2023-05-18T06:22:37.751Z,16.65
2023-05-18T06:25:54.378Z,16.90
2023-05-18T06:29:09.186Z,16.77
2023-05-18T06:32:50.111Z,16.97
2023-05-18T06:35:56.370Z,16.90
2023-05-18T06:39:02.042Z,16.90
2023-05-18T06:42:08.304Z,17.15
2023-05-18T06:45:14.335Z,16.93
2023-05-18T06:48:29.307Z,16.86
2023-05-18T06:51:35.350Z,16.79
2023-05-18T06:54:40.734Z,17.00
2023-05-18T06:57:46.522Z,17.38
2023-05-18T07:00:51.995Z,17.34
2023-05-18T07:03:57.607Z,17.18
2023-05-18T07:07:02.859Z,17.07
2023-05-18T07:10:08.887Z,17.04
2023-05-18T07:13:14.234Z,17.19
2023-05-18T07:16:20.346Z,16.98
2023-05-18T07:19:25.829Z,17.41
2023-05-18T07:22:31.911Z,17.46
2023-05-18T07:25:37.873Z,17.27
2023-05-18T07:28:43.801Z,17.19
2023-05-18T07:31:49.403Z,17.36
2023-05-18T07:34:54.805Z,17.15
2023-05-18T07:38:00.259Z,17.07
2023-05-18T07:41:05.566Z,17.39
2023-05-18T07:44:11.265Z,17.42
2023-05-18T07:47:17.232Z,17.78
2023-05-18T07:50:22.926Z,17.64
2023-05-18T07:53:28.980Z,17.73
2023-05-18T07:56:35.186Z,17.94
2023-05-18T07:59:40.460Z,17.88
2023-05-18T08:02:46.456Z,17.86
2023-05-18T08:05:52.330Z,17.92
2023-05-18T08:08:58.241Z,17.71
2023-05-18T08:12:03.924Z,17.57
2023-05-18T08:15:10.221Z,17.27
2023-05-18T08:18:15.986Z,17.20
2023-05-18T08:21:21.675Z,17.25
2023-05-18T08:24:27.284Z,17.27
2023-05-18T08:27:32.954Z,17.36
2023-05-18T08:30:38.439Z,17.62
2023-05-18T08:33:44.121Z,17.63
2023-05-18T08:36:50.698Z,17.30
2023-05-18T08:39:56.110Z,17.36
2023-05-18T08:43:12.106Z,17.48
2023-05-18T08:46:22.075Z,17.36
2023-05-18T08:49:28.807Z,17.52
2023-05-18T08:52:37.626Z,17.42
2023-05-18T08:55:45.792Z,17.57
2023-05-18T08:58:56.106Z,17.63
2023-05-18T09:02:01.681Z,17.87
2023-05-18T09:05:08.575Z,17.89
2023-05-18T09:08:15.026Z,17.82
2023-05-18T09:11:22.434Z,17.90
2023-05-18T09:14:28.010Z,17.98
2023-05-18T09:17:33.617Z,18.21
2023-05-18T09:20:39.162Z,18.23
2023-05-18T09:23:45.478Z,18.30
2023-05-18T09:26:51.806Z,18.33
2023-05-18T09:29:58.601Z,18.45
2023-05-18T09:33:04.298Z,18.41
2023-05-18T09:36:10.415Z,18.56
2023-05-18T09:39:16.249Z,18.36
2023-05-18T09:42:24.103Z,18.27
2023-05-18T09:45:29.960Z,18.39
2023-05-18T09:48:46.188Z,18.25
2023-05-18T09:51:51.406Z,18.24
2023-05-18T09:55:01.272Z,18.35
2023-05-18T09:58:08.395Z,18.47
2023-05-18T10:01:14.007Z,18.52
2023-05-18T10:04:20.437Z,18.59
2023-05-18T10:07:26.161Z,18.73
2023-05-18T10:10:32.064Z,18.82
2023-05-18T10:13:38.268Z,18.84
2023-05-18T10:16:44.951Z,18.79
2023-05-18T10:19:55.180Z,19.05
2023-05-18T10:23:05.802Z,19.31
2023-05-18T10:26:12.685Z,19.27
2023-05-18T10:29:18.391Z,19.20
2023-05-18T10:32:24.412Z,19.53
2023-05-18T10:35:30.555Z,19.52
2023-05-18T10:38:40.106Z,19.57
2023-05-18T10:41:47.242Z,19.72
2023-05-18T10:44:57.383Z,19.76
2023-05-18T10:48:06.042Z,19.75
2023-05-18T10:51:11.496Z,19.89
2023-05-18T10:54:17.247Z,19.89
2023-05-18T10:57:23.024Z,19.90
2023-05-18T11:00:31.190Z,19.70
2023-05-18T11:03:41.438Z,20.02
2023-05-18T11:06:55.407Z,19.77
2023-05-18T11:10:08.555Z,19.68
2023-05-18T11:13:15.450Z,19.86
2023-05-18T11:16:21.286Z,19.87
2023-05-18T11:19:27.464Z,20.16
2023-05-18T11:22:52.781Z,20.21
2023-05-18T11:26:05.007Z,19.78
2023-05-18T11:29:25.122Z,19.77
2023-05-18T11:32:33.142Z,19.80
2023-05-18T11:36:13.967Z,19.95
2023-05-18T11:39:25.610Z,19.94
2023-05-18T11:42:36.843Z,19.99
2023-05-18T11:45:59.292Z,19.80
2023-05-18T11:49:08.168Z,19.86
2023-05-18T11:52:23.260Z,19.77
2023-05-18T11:55:41.431Z,19.76
2023-05-18T11:58:49.613Z,19.51
2023-05-18T12:02:01.428Z,19.59
2023-05-18T12:05:11.718Z,19.67
2023-05-18T12:08:22.205Z,19.67
2023-05-18T12:11:28.347Z,19.66
2023-05-18T12:14:36.454Z,19.64
2023-05-18T12:17:46.993Z,19.68
2023-05-18T12:20:53.747Z,19.83
2023-05-18T12:24:01.365Z,20.06
2023-05-18T12:27:08.850Z,19.87
2023-05-18T12:30:21.155Z,19.78
2023-05-18T12:33:26.367Z,19.97
2023-05-18T12:36:33.901Z,20.11
2023-05-18T12:43:00.426Z,20.00
2023-05-18T12:46:06.340Z,20.67
2023-05-18T12:49:11.501Z,20.90
2023-05-18T12:52:17.170Z,20.82
2023-05-18T12:55:23.474Z,20.37
2023-05-18T12:58:28.592Z,20.39
2023-05-18T13:01:44.529Z,20.69
2023-05-18T13:05:02.145Z,20.53
2023-05-18T13:08:08.571Z,20.25
2023-05-18T13:11:16.158Z,20.04
2023-05-18T13:14:23.607Z,20.36
2023-05-18T13:17:29.054Z,20.29
2023-05-18T13:20:40.442Z,20.32
2023-05-18T13:23:46.511Z,20.63
2023-05-18T13:26:52.133Z,20.12
2023-05-18T13:29:59.973Z,20.09
2023-05-18T13:33:08.436Z,20.11
2023-05-18T13:36:13.930Z,19.93
2023-05-18T13:39:19.416Z,20.03
2023-05-18T13:42:24.857Z,20.10
2023-05-18T13:45:31.390Z,20.56
2023-05-18T13:48:37.532Z,20.03
2023-05-18T13:51:43.146Z,20.08
2023-05-18T13:54:49.096Z,20.21
2023-05-18T13:57:54.747Z,20.40
2023-05-18T14:01:04.390Z,20.69
2023-05-18T14:04:09.658Z,20.70
2023-05-18T14:07:14.890Z,21.06
2023-05-18T14:10:21.145Z,20.73
2023-05-18T14:13:26.651Z,20.23
2023-05-18T14:16:32.174Z,20.14
2023-05-18T14:19:37.466Z,19.94
2023-05-18T14:22:42.815Z,20.34
2023-05-18T14:25:48.060Z,20.35
2023-05-18T14:28:53.432Z,20.19
2023-05-18T14:31:59.219Z,20.16
2023-05-18T14:35:05.404Z,20.38
2023-05-18T14:38:13.690Z,20.63
2023-05-18T14:41:19.263Z,20.33
2023-05-18T14:44:25.119Z,19.99
2023-05-18T14:47:31.088Z,19.99
2023-05-18T14:50:38.568Z,20.19
2023-05-18T14:53:44.710Z,20.27
2023-05-18T14:56:50.159Z,19.92
2023-05-18T14:59:55.645Z,20.12
2023-05-18T15:03:01.587Z,19.97
2023-05-18T15:06:07.130Z,19.94
2023-05-18T15:09:13.054Z,19.91
2023-05-18T15:12:20.077Z,20.15
2023-05-18T15:15:26.714Z,20.16
2023-05-18T15:18:32.425Z,20.42
2023-05-18T15:21:37.947Z,20.33
2023-05-18T15:24:43.317Z,20.48
2023-05-18T15:27:53.712Z,20.54
2023-05-18T15:30:59.413Z,20.97
2023-05-18T15:34:04.938Z,20.71
2023-05-18T15:37:10.541Z,20.77
2023-05-18T15:40:17.355Z,20.78
2023-05-18T15:43:24.276Z,20.26
2023-05-18T15:46:38.217Z,20.27
2023-05-18T15:49:43.495Z,20.30
2023-05-18T15:52:48.679Z,20.15
2023-05-18T15:55:58.793Z,20.03
2023-05-18T15:59:07.152Z,19.95
2023-05-18T16:02:12.294Z,19.94
2023-05-18T16:05:17.355Z,19.92
2023-05-18T16:08:22.783Z,19.86
2023-05-18T16:11:28.284Z,19.88
2023-05-18T16:14:34.139Z,19.91
2023-05-18T16:17:39.944Z,20.29
2023-05-18T16:20:45.828Z,20.39
2023-05-18T16:23:51.192Z,20.68
2023-05-18T16:26:56.794Z,20.54
2023-05-18T16:30:02.595Z,20.19
2023-05-18T16:33:08.299Z,20.01
2023-05-18T16:36:14.388Z,20.11
2023-05-18T16:39:21.193Z,20.04
2023-05-18T16:42:26.303Z,19.77
2023-05-18T16:45:31.849Z,19.69
2023-05-18T16:48:37.055Z,19.55
2023-05-18T16:51:42.294Z,19.47
2023-05-18T16:54:47.953Z,19.43
2023-05-18T16:57:53.286Z,19.18
2023-05-18T17:00:59.220Z,19.10
2023-05-18T17:04:04.793Z,19.03
2023-05-18T17:07:11.784Z,19.04
2023-05-18T17:10:17.613Z,19.05
2023-05-18T17:13:22.900Z,18.84
2023-05-18T17:16:28.729Z,18.85
2023-05-18T17:19:39.559Z,18.89
2023-05-18T17:22:45.114Z,18.78
2023-05-18T17:25:55.124Z,18.71
2023-05-18T17:29:06.967Z,18.78
2023-05-18T17:32:12.990Z,18.67
2023-05-18T17:35:18.264Z,18.59
2023-05-18T17:38:23.588Z,18.53
2023-05-18T17:41:29.458Z,18.50
2023-05-18T17:44:35.020Z,18.53
2023-05-18T17:47:42.078Z,18.52
2023-05-18T17:50:47.965Z,18.32
2023-05-18T17:53:53.275Z,18.36
2023-05-18T17:56:58.540Z,18.28
2023-05-18T18:00:06.344Z,18.34
2023-05-18T18:03:17.659Z,18.25
2023-05-18T18:06:23.824Z,18.14
2023-05-18T18:09:29.230Z,18.19
2023-05-18T18:12:34.901Z,18.18
2023-05-18T18:15:40.232Z,18.13
2023-05-18T18:18:45.878Z,17.99
2023-05-18T18:21:51.875Z,17.97
2023-05-18T18:24:57.680Z,17.88
2023-05-18T18:28:03.172Z,17.91
2023-05-18T18:31:08.845Z,17.91
2023-05-18T18:34:14.961Z,17.83
2023-05-18T18:37:20.349Z,17.76
2023-05-18T18:40:25.697Z,17.73
2023-05-18T18:43:31.710Z,17.68
2023-05-18T18:46:37.995Z,17.64
2023-05-18T18:49:43.562Z,17.59
2023-05-18T18:52:49.064Z,17.65
2023-05-18T18:55:55.894Z,17.63
2023-05-18T18:59:01.876Z,17.53
2023-05-18T19:02:07.091Z,17.57
2023-05-18T19:05:12.682Z,17.44
2023-05-18T19:08:18.457Z,17.46
2023-05-18T19:11:24.247Z,17.40
2023-05-18T19:14:29.771Z,17.33
2023-05-18T19:17:35.173Z,17.31
2023-05-18T19:20:40.310Z,17.28
2023-05-18T19:23:45.920Z,17.26
2023-05-18T19:26:50.926Z,17.22
2023-05-18T19:29:56.110Z,17.30
2023-05-18T19:33:01.683Z,17.20
2023-05-18T19:36:07.393Z,17.13
2023-05-18T19:39:13.129Z,17.06
2023-05-18T19:42:18.405Z,17.07
2023-05-18T19:45:24.297Z,17.08
2023-05-18T19:48:31.451Z,17.13
2023-05-18T19:51:37.331Z,17.02
2023-05-18T19:54:42.819Z,16.96
2023-05-18T19:57:48.507Z,16.89
2023-05-18T20:00:55.262Z,16.88
2023-05-18T20:04:01.126Z,16.81
2023-05-18T20:07:06.706Z,16.88
2023-05-18T20:10:11.995Z,16.79
2023-05-18T20:13:17.308Z,17.00
2023-05-18T20:16:22.972Z,16.83
2023-05-18T20:19:29.151Z,16.99
2023-05-18T20:22:34.934Z,16.92
2023-05-18T20:25:40.081Z,16.93
2023-05-18T20:28:45.155Z,16.95
2023-05-18T20:31:50.872Z,16.87
2023-05-18T20:34:56.658Z,16.94
2023-05-18T20:38:02.921Z,16.82
2023-05-18T20:41:09.887Z,16.78
2023-05-18T20:44:17.771Z,16.78
2023-05-18T20:47:23.480Z,16.72
2023-05-18T20:50:29.452Z,16.78
2023-05-18T20:53:35.246Z,16.75
2023-05-18T20:56:40.354Z,16.84
2023-05-18T20:59:45.325Z,16.78
2023-05-18T21:02:50.747Z,16.71
2023-05-18T21:05:56.842Z,16.67
2023-05-18T21:09:02.519Z,16.62
2023-05-18T21:12:07.984Z,16.59
2023-05-18T21:15:13.576Z,16.52
2023-05-18T21:18:19.007Z,16.50
2023-05-18T21:21:24.546Z,16.45
2023-05-18T21:24:29.967Z,16.44
2023-05-18T21:27:37.372Z,16.45
2023-05-18T21:30:43.017Z,16.48
2023-05-18T21:33:48.564Z,16.46
2023-05-18T21:36:54.078Z,16.41
2023-05-18T21:39:59.359Z,16.37
2023-05-18T21:43:04.951Z,16.39
2023-05-18T21:46:10.300Z,16.43
2023-05-18T21:49:15.570Z,16.37
2023-05-18T21:52:21.150Z,16.38
2023-05-18T21:55:26.917Z,16.40
2023-05-18T21:58:32.385Z,16.31
2023-05-18T22:01:37.504Z,16.36
2023-05-18T22:04:42.822Z,16.19
2023-05-18T22:07:49.443Z,16.14
2023-05-18T22:10:54.756Z,16.12
2023-05-18T22:14:01.118Z,16.23
2023-05-18T22:17:06.329Z,16.28
2023-05-18T22:20:11.985Z,16.22
2023-05-18T22:23:17.528Z,16.24
2023-05-18T22:26:23.046Z,16.22
2023-05-18T22:29:28.932Z,16.31
2023-05-18T22:32:35.020Z,16.27
2023-05-18T22:35:40.567Z,16.27
2023-05-18T22:38:46.385Z,16.26
2023-05-18T22:41:51.655Z,16.29
2023-05-18T22:44:56.882Z,16.24
2023-05-18T22:48:02.802Z,16.25
2023-05-18T22:51:08.844Z,16.35
2023-05-18T22:54:14.540Z,16.32
2023-05-18T22:57:20.183Z,16.28
2023-05-18T23:00:27.723Z,16.26
2023-05-18T23:03:32.935Z,16.34
2023-05-18T23:06:38.377Z,16.31
2023-05-18T23:09:43.752Z,16.14
2023-05-18T23:12:49.814Z,16.15
2023-05-18T23:15:56.486Z,16.10
2023-05-18T23:19:01.920Z,16.19
2023-05-18T23:22:07.488Z,16.17
2023-05-18T23:25:13.056Z,16.08
2023-05-18T23:28:19.510Z,16.11
2023-05-18T23:31:25.260Z,16.11
2023-05-18T23:34:32.430Z,16.13
2023-05-18T23:37:42.335Z,16.14
2023-05-18T23:40:47.725Z,16.18
2023-05-18T23:43:54.046Z,16.13
2023-05-18T23:46:59.404Z,16.14
2023-05-18T23:50:05.605Z,16.06
2023-05-18T23:53:12.716Z,16.05
2023-05-18T23:56:18.993Z,16.15
2023-05-18T23:59:25.573Z,15.99
